createdAt,value
2019-05-23T00:00:53.165Z,80.16
2019-05-23T00:01:53.142Z,80.30
2019-05-23T00:02:53.144Z,80.81
2019-05-23T00:03:53.123Z,81.12
2019-05-23T00:04:53.126Z,80.71
2019-05-23T00:05:53.122Z,80.71
2019-05-23T00:06:53.095Z,80.71
2019-05-23T00:07:53.105Z,81.32
2019-05-23T00:08:53.084Z,81.22
2019-05-23T00:09:53.076Z,81.12
2019-05-23T00:10:53.047Z,81.05
2019-05-23T00:11:53.053Z,81.46
2019-05-23T00:12:53.076Z,81.57
2019-05-23T00:13:53.023Z,81.67
2019-05-23T00:14:53.016Z,81.67
2019-05-23T00:15:53.010Z,81.57
2019-05-23T00:16:53.006Z,81.67
2019-05-23T00:17:52.983Z,81.87
2019-05-23T00:18:52.968Z,82.08
2019-05-23T00:19:52.954Z,82.18
2019-05-23T00:20:52.956Z,82.22
2019-05-23T00:21:52.935Z,82.42
2019-05-23T00:22:52.952Z,82.53
2019-05-23T00:23:52.903Z,82.53
2019-05-23T00:24:52.901Z,82.53
2019-05-23T00:25:52.883Z,82.32
2019-05-23T00:26:52.890Z,82.42
2019-05-23T00:27:52.875Z,82.63
2019-05-23T00:29:08.770Z,82.83
2019-05-23T00:29:53.866Z,82.93
2019-05-23T00:30:52.844Z,83.14
2019-05-23T00:31:52.831Z,83.55
2019-05-23T00:32:52.813Z,83.76
2019-05-23T00:33:52.822Z,83.34
2019-05-23T00:34:52.791Z,83.45
2019-05-23T00:35:52.780Z,83.45
2019-05-23T00:36:52.778Z,83.28
2019-05-23T00:37:52.775Z,83.07
2019-05-23T00:38:52.773Z,83.39
2019-05-23T00:39:52.751Z,83.18
2019-05-23T00:40:52.731Z,83.39
2019-05-23T00:41:52.753Z,83.80
2019-05-23T00:42:52.711Z,84.20
2019-05-23T00:43:52.701Z,83.80
2019-05-23T00:44:52.716Z,83.80
2019-05-23T00:45:52.713Z,83.80
2019-05-23T00:46:52.671Z,83.90
2019-05-23T00:47:52.657Z,84.00
2019-05-23T00:48:52.671Z,84.25
2019-05-23T00:49:52.644Z,84.25
2019-05-23T00:50:52.631Z,84.14
2019-05-23T00:51:52.615Z,84.25
2019-05-23T00:52:52.600Z,84.34
2019-05-23T00:53:52.605Z,84.45
2019-05-23T00:54:52.600Z,84.14
2019-05-23T00:55:52.587Z,84.55
2019-05-23T00:56:52.570Z,84.86
2019-05-23T00:57:52.551Z,84.76
2019-05-23T00:58:52.577Z,84.76
2019-05-23T00:59:52.540Z,84.55
2019-05-23T01:00:52.521Z,84.66
2019-05-23T01:01:52.539Z,84.45
2019-05-23T01:02:52.490Z,84.25
2019-05-23T01:03:52.499Z,84.14
2019-05-23T01:04:52.480Z,83.94
2019-05-23T01:05:52.465Z,83.94
2019-05-23T01:06:52.442Z,84.08
2019-05-23T01:07:52.448Z,84.28
2019-05-23T01:08:52.449Z,84.49
2019-05-23T01:09:52.431Z,84.39
2019-05-23T01:10:52.422Z,84.18
2019-05-23T01:11:52.391Z,84.18
2019-05-23T01:12:52.389Z,84.28
2019-05-23T01:13:52.385Z,84.39
2019-05-23T01:14:52.404Z,84.49
2019-05-23T01:15:52.350Z,84.69
2019-05-23T01:16:52.340Z,84.59
2019-05-23T01:17:52.361Z,85.04
2019-05-23T01:18:52.363Z,85.11
2019-05-23T01:19:52.308Z,85.21
2019-05-23T01:20:52.314Z,85.21
2019-05-23T01:21:52.353Z,84.90
2019-05-23T01:22:52.292Z,84.84
2019-05-23T01:23:52.277Z,85.14
2019-05-23T01:24:52.273Z,84.84
2019-05-23T01:25:52.243Z,84.84
2019-05-23T01:26:52.249Z,84.53
2019-05-23T01:27:52.287Z,84.53
2019-05-23T01:28:52.217Z,84.74
2019-05-23T01:29:52.243Z,84.42
2019-05-23T01:30:52.202Z,84.32
2019-05-23T01:31:52.201Z,84.74
2019-05-23T01:32:52.183Z,84.94
2019-05-23T01:33:52.172Z,84.74
2019-05-23T01:34:52.199Z,84.63
2019-05-23T01:35:52.172Z,84.63
2019-05-23T01:36:52.121Z,84.74
2019-05-23T01:37:52.297Z,85.46
2019-05-23T01:38:52.110Z,85.46
2019-05-23T01:39:52.103Z,85.46
2019-05-23T01:40:52.101Z,84.84
2019-05-23T01:41:52.097Z,84.63
2019-05-23T01:42:52.066Z,85.04
2019-05-23T01:43:52.097Z,85.35
2019-05-23T01:44:52.038Z,85.25
2019-05-23T01:45:52.038Z,85.28
2019-05-23T01:46:52.040Z,84.98
2019-05-23T01:47:52.009Z,85.08
2019-05-23T01:48:52.048Z,84.88
2019-05-23T01:49:51.990Z,84.88
2019-05-23T01:50:52.050Z,84.67
2019-05-23T01:51:51.975Z,84.56
2019-05-23T01:52:51.959Z,84.98
2019-05-23T01:53:51.988Z,85.39
2019-05-23T01:54:51.948Z,85.18
2019-05-23T01:55:51.918Z,85.18
2019-05-23T01:56:51.909Z,85.28
2019-05-23T01:57:51.912Z,85.12
2019-05-23T01:58:51.968Z,85.22
2019-05-23T02:00:08.244Z,85.12
2019-05-23T02:00:52.881Z,85.22
2019-05-23T02:01:51.877Z,85.22
2019-05-23T02:02:51.862Z,85.22
2019-05-23T02:03:51.840Z,85.33
2019-05-23T02:04:51.862Z,85.43
2019-05-23T02:05:51.828Z,85.33
2019-05-23T02:06:51.801Z,85.63
2019-05-23T02:07:51.820Z,85.22
2019-05-23T02:08:51.779Z,85.12
2019-05-23T02:09:51.775Z,85.33
2019-05-23T02:10:51.805Z,85.43
2019-05-23T02:11:51.794Z,85.63
2019-05-23T02:12:51.737Z,85.53
2019-05-23T02:13:51.787Z,85.43
2019-05-23T02:14:51.735Z,85.53
2019-05-23T02:15:51.744Z,85.47
2019-05-23T02:16:51.689Z,85.57
2019-05-23T02:17:51.713Z,85.78
2019-05-23T02:18:51.679Z,85.68
2019-05-23T02:19:51.658Z,85.36
2019-05-23T02:20:51.657Z,85.78
2019-05-23T02:21:51.642Z,85.68
2019-05-23T02:22:51.632Z,85.47
2019-05-23T02:23:51.618Z,85.57
2019-05-23T02:24:51.618Z,85.88
2019-05-23T02:25:51.628Z,85.98
2019-05-23T02:26:51.608Z,85.78
2019-05-23T02:27:51.571Z,85.88
2019-05-23T02:28:51.569Z,86.19
2019-05-23T02:29:51.564Z,85.98
2019-05-23T02:30:51.550Z,85.88
2019-05-23T02:31:51.519Z,86.08
2019-05-23T02:32:51.521Z,86.19
2019-05-23T02:33:51.520Z,85.78
2019-05-23T02:34:51.513Z,85.47
2019-05-23T02:35:51.558Z,85.36
2019-05-23T02:36:51.478Z,85.36
2019-05-23T02:37:51.457Z,85.78
2019-05-23T02:38:51.553Z,86.08
2019-05-23T02:39:51.448Z,86.08
2019-05-23T02:40:51.442Z,85.98
2019-05-23T02:41:51.474Z,85.88
2019-05-23T02:42:51.427Z,86.02
2019-05-23T02:43:51.459Z,86.02
2019-05-23T02:44:51.397Z,85.82
2019-05-23T02:45:51.410Z,86.02
2019-05-23T02:46:51.397Z,86.02
2019-05-23T02:47:51.381Z,86.02
2019-05-23T02:48:51.353Z,86.13
2019-05-23T02:49:51.355Z,86.02
2019-05-23T02:50:51.341Z,85.92
2019-05-23T02:51:51.357Z,85.92
2019-05-23T02:52:51.298Z,86.02
2019-05-23T02:53:51.294Z,85.92
2019-05-23T02:54:51.277Z,85.92
2019-05-23T02:55:51.298Z,86.43
2019-05-23T02:56:51.281Z,86.23
2019-05-23T02:57:51.239Z,86.47
2019-05-23T02:58:51.239Z,86.23
2019-05-23T02:59:51.221Z,86.37
2019-05-23T03:00:54.838Z,86.02
2019-05-23T03:01:51.228Z,85.82
2019-05-23T03:02:51.187Z,85.51
2019-05-23T03:03:51.188Z,85.65
2019-05-23T03:04:51.222Z,85.96
2019-05-23T03:05:51.173Z,85.86
2019-05-23T03:06:51.159Z,86.06
2019-05-23T03:07:51.148Z,86.02
2019-05-23T03:08:51.126Z,86.13
2019-05-23T03:09:51.118Z,86.06
2019-05-23T03:10:51.106Z,85.96
2019-05-23T03:11:51.086Z,86.06
2019-05-23T03:12:51.116Z,85.96
2019-05-23T03:13:51.075Z,86.06
2019-05-23T03:14:51.086Z,86.16
2019-05-23T03:15:51.045Z,86.06
2019-05-23T03:16:51.072Z,85.96
2019-05-23T03:17:51.027Z,86.16
2019-05-23T03:18:51.026Z,86.58
2019-05-23T03:19:51.008Z,86.68
2019-05-23T03:20:51.005Z,86.88
2019-05-23T03:21:51.023Z,86.58
2019-05-23T03:22:50.988Z,86.37
2019-05-23T03:23:50.968Z,86.37
2019-05-23T03:24:50.964Z,86.41
2019-05-23T03:25:50.946Z,86.31
2019-05-23T03:26:50.990Z,86.31
2019-05-23T03:27:50.925Z,86.41
2019-05-23T03:28:50.924Z,86.52
2019-05-23T03:29:50.925Z,87.03
2019-05-23T03:30:50.895Z,86.93
2019-05-23T03:31:50.898Z,86.72
2019-05-23T03:32:50.894Z,86.72
2019-05-23T03:33:50.887Z,86.72
2019-05-23T03:34:50.852Z,86.61
2019-05-23T03:35:50.854Z,86.52
2019-05-23T03:36:50.822Z,86.52
2019-05-23T03:37:50.803Z,86.41
2019-05-23T03:38:50.825Z,86.41
2019-05-23T03:39:50.854Z,86.16
2019-05-23T03:40:50.812Z,86.37
2019-05-23T03:41:50.777Z,86.16
2019-05-23T03:42:50.765Z,86.16
2019-05-23T03:43:50.759Z,86.68
2019-05-23T03:44:50.756Z,86.58
2019-05-23T03:45:50.727Z,86.58
2019-05-23T03:46:50.761Z,86.68
2019-05-23T03:47:50.736Z,86.58
2019-05-23T03:48:50.715Z,86.79
2019-05-23T03:49:50.685Z,86.74
2019-05-23T03:50:50.714Z,86.54
2019-05-23T03:51:50.676Z,86.33
2019-05-23T03:52:50.683Z,86.16
2019-05-23T03:53:50.741Z,86.06
2019-05-23T03:54:50.641Z,86.06
2019-05-23T03:55:50.614Z,86.13
2019-05-23T03:56:50.615Z,86.13
2019-05-23T03:57:50.633Z,86.02
2019-05-23T03:58:50.633Z,86.02
2019-05-23T03:59:50.633Z,86.33
2019-05-23T04:00:50.583Z,86.23
2019-05-23T04:01:50.594Z,86.02
2019-05-23T04:02:50.580Z,86.02
2019-05-23T04:03:50.532Z,85.92
2019-05-23T04:04:50.540Z,85.92
2019-05-23T04:05:50.562Z,86.02
2019-05-23T04:06:50.504Z,86.02
2019-05-23T04:07:50.513Z,85.82
2019-05-23T04:08:50.490Z,85.68
2019-05-23T04:09:50.522Z,85.68
2019-05-23T04:10:51.863Z,85.68
2019-05-23T04:11:50.477Z,85.57
2019-05-23T04:12:50.443Z,85.47
2019-05-23T04:13:50.552Z,85.36
2019-05-23T04:14:50.434Z,85.36
2019-05-23T04:15:50.418Z,85.47
2019-05-23T04:16:50.418Z,85.47
2019-05-23T04:17:50.414Z,85.36
2019-05-23T04:18:50.363Z,85.26
2019-05-23T04:19:50.353Z,85.26
2019-05-23T04:20:50.345Z,85.22
2019-05-23T04:21:50.397Z,85.22
2019-05-23T04:22:50.325Z,85.33
2019-05-23T04:23:50.313Z,85.22
2019-05-23T04:24:50.303Z,85.02
2019-05-23T04:25:50.361Z,84.81
2019-05-23T04:26:50.287Z,84.91
2019-05-23T04:27:50.262Z,84.81
2019-05-23T04:28:50.278Z,84.81
2019-05-23T04:29:50.245Z,85.22
2019-05-23T04:30:51.082Z,85.12
2019-05-23T04:32:06.128Z,85.02
2019-05-23T04:32:51.223Z,84.98
2019-05-23T04:33:50.206Z,84.98
2019-05-23T04:34:50.180Z,84.98
2019-05-23T04:35:50.192Z,84.88
2019-05-23T04:36:50.172Z,84.88
2019-05-23T04:37:50.154Z,84.67
2019-05-23T04:38:50.155Z,84.53
2019-05-23T04:39:50.131Z,84.42
2019-05-23T04:40:50.152Z,84.53
2019-05-23T04:41:50.123Z,84.53
2019-05-23T04:42:50.102Z,84.42
2019-05-23T04:43:50.091Z,84.42
2019-05-23T04:44:50.105Z,84.63
2019-05-23T04:45:50.102Z,84.84
2019-05-23T04:46:50.173Z,84.84
2019-05-23T04:47:50.097Z,84.84
2019-05-23T04:48:50.051Z,84.84
2019-05-23T04:49:50.021Z,84.63
2019-05-23T04:50:50.031Z,84.63
2019-05-23T04:51:50.025Z,84.74
2019-05-23T04:52:50.019Z,84.74
2019-05-23T04:53:50.020Z,84.74
2019-05-23T04:54:49.987Z,84.74
2019-05-23T04:55:49.980Z,84.74
2019-05-23T04:56:49.941Z,84.84
2019-05-23T04:57:49.970Z,84.84
2019-05-23T04:58:49.955Z,84.84
2019-05-23T04:59:49.932Z,84.94
2019-05-23T05:00:49.899Z,85.11
2019-05-23T05:01:49.941Z,85.11
2019-05-23T05:02:49.949Z,85.11
2019-05-23T05:03:49.882Z,85.21
2019-05-23T05:04:49.920Z,85.11
2019-05-23T05:05:49.886Z,85.00
2019-05-23T05:06:49.849Z,85.00
2019-05-23T05:07:49.844Z,85.00
2019-05-23T05:08:49.837Z,85.00
2019-05-23T05:09:49.820Z,84.90
2019-05-23T05:10:49.798Z,85.11
2019-05-23T05:11:49.792Z,85.17
2019-05-23T05:12:49.788Z,85.17
2019-05-23T05:13:49.772Z,85.06
2019-05-23T05:14:49.766Z,84.86
2019-05-23T05:15:49.780Z,84.86
2019-05-23T05:16:49.747Z,84.86
2019-05-23T05:17:49.736Z,84.55
2019-05-23T05:18:49.735Z,84.52
2019-05-23T05:19:49.725Z,84.61
2019-05-23T05:20:49.708Z,84.72
2019-05-23T05:21:49.727Z,84.41
2019-05-23T05:22:49.699Z,84.41
2019-05-23T05:23:49.677Z,84.31
2019-05-23T05:24:49.648Z,84.17
2019-05-23T05:25:49.673Z,83.96
2019-05-23T05:26:49.635Z,83.86
2019-05-23T05:27:49.637Z,83.65
2019-05-23T05:28:49.625Z,83.61
2019-05-23T05:29:49.624Z,83.51
2019-05-23T05:30:49.587Z,83.20
2019-05-23T05:31:49.583Z,83.37
2019-05-23T05:32:49.583Z,82.76
2019-05-23T05:33:49.546Z,82.65
2019-05-23T05:34:49.592Z,82.55
2019-05-23T05:35:49.541Z,82.31
2019-05-23T05:36:49.567Z,82.10
2019-05-23T05:37:49.717Z,81.90
2019-05-23T05:38:49.497Z,81.76
2019-05-23T05:39:49.484Z,81.56
2019-05-23T05:40:49.522Z,81.35
2019-05-23T05:41:49.466Z,81.24
2019-05-23T05:42:49.456Z,80.80
2019-05-23T05:43:49.471Z,80.80
2019-05-23T05:44:49.446Z,80.69
2019-05-23T05:45:49.437Z,80.29
2019-05-23T05:46:49.468Z,80.05
2019-05-23T05:47:49.438Z,79.53
2019-05-23T05:48:49.407Z,79.19
2019-05-23T05:49:49.420Z,78.99
2019-05-23T05:50:49.367Z,78.68
2019-05-23T05:51:49.367Z,78.44
2019-05-23T05:52:49.353Z,78.54
2019-05-23T05:53:49.447Z,78.34
2019-05-23T05:54:49.335Z,78.54
2019-05-23T05:55:49.314Z,78.30
2019-05-23T05:56:49.322Z,78.09
2019-05-23T05:57:49.309Z,78.00
2019-05-23T05:58:49.297Z,78.00
2019-05-23T05:59:49.286Z,77.75
2019-05-23T06:00:49.296Z,77.45
2019-05-23T06:01:49.245Z,77.25
2019-05-23T06:03:03.467Z,77.31
2019-05-23T06:03:50.237Z,76.29
2019-05-23T06:04:49.233Z,76.09
2019-05-23T06:05:49.223Z,76.09
2019-05-23T06:06:50.207Z,75.74
2019-05-23T06:07:49.184Z,75.54
2019-05-23T06:08:49.218Z,75.34
2019-05-23T06:09:49.196Z,74.83
2019-05-23T06:10:49.189Z,74.79
2019-05-23T06:11:49.142Z,74.58
2019-05-23T06:12:49.134Z,75.10
2019-05-23T06:13:49.174Z,74.65
2019-05-23T06:14:49.129Z,74.76
2019-05-23T06:15:49.158Z,74.45
2019-05-23T06:16:49.098Z,74.55
2019-05-23T06:17:49.075Z,74.45
2019-05-23T06:18:49.094Z,74.15
2019-05-23T06:19:49.057Z,74.11
2019-05-23T06:20:49.106Z,74.11
2019-05-23T06:21:49.052Z,73.80
2019-05-23T06:22:49.016Z,73.80
2019-05-23T06:23:49.013Z,73.47
2019-05-23T06:24:53.688Z,72.14
2019-05-23T06:25:50.003Z,71.43
2019-05-23T06:26:48.984Z,71.53
2019-05-23T06:27:48.975Z,71.19
2019-05-23T06:28:49.010Z,70.99
2019-05-23T06:29:48.954Z,69.77
2019-05-23T06:30:48.948Z,69.26
2019-05-23T06:31:48.940Z,69.87
2019-05-23T06:32:49.003Z,69.33
2019-05-23T06:33:48.905Z,68.52
2019-05-23T06:34:48.945Z,69.13
2019-05-23T06:35:48.873Z,68.32
2019-05-23T06:36:48.885Z,68.01
2019-05-23T06:37:48.864Z,67.67
2019-05-23T06:38:48.843Z,67.27
2019-05-23T06:39:48.907Z,67.06
2019-05-23T06:40:48.823Z,67.36
2019-05-23T06:41:48.812Z,67.57
2019-05-23T06:42:50.956Z,67.24
2019-05-23T06:43:48.791Z,66.83
2019-05-23T06:44:48.783Z,66.93
2019-05-23T06:45:48.762Z,66.83
2019-05-23T06:46:48.781Z,66.63
2019-05-23T06:47:48.763Z,66.49
2019-05-23T06:48:48.743Z,66.39
2019-05-23T06:49:48.749Z,66.08
2019-05-23T06:50:48.725Z,65.27
2019-05-23T06:51:48.714Z,64.97
2019-05-23T06:52:48.720Z,64.97
2019-05-23T06:53:48.693Z,64.73
2019-05-23T06:54:48.709Z,64.64
2019-05-23T06:55:48.699Z,64.23
2019-05-23T06:56:48.710Z,64.33
2019-05-23T06:57:48.655Z,64.43
2019-05-23T06:58:48.639Z,64.10
2019-05-23T06:59:48.636Z,64.40
2019-05-23T07:00:48.794Z,64.40
2019-05-23T07:01:48.601Z,63.79
2019-05-23T07:02:48.610Z,63.49
2019-05-23T07:03:48.597Z,63.49
2019-05-23T07:04:48.581Z,63.46
2019-05-23T07:05:48.585Z,62.95
2019-05-23T07:06:48.565Z,62.65
2019-05-23T07:07:48.556Z,62.54
2019-05-23T07:08:48.523Z,62.52
2019-05-23T07:09:48.512Z,62.41
2019-05-23T07:10:48.512Z,61.71
2019-05-23T07:11:48.506Z,62.11
2019-05-23T07:12:48.544Z,61.71
2019-05-23T07:13:48.481Z,61.51
2019-05-23T07:14:48.456Z,61.47
2019-05-23T07:15:48.467Z,60.77
2019-05-23T07:16:50.395Z,60.66
2019-05-23T07:17:48.424Z,60.57
2019-05-23T07:18:48.485Z,59.85
2019-05-23T07:19:48.411Z,60.03
2019-05-23T07:20:48.427Z,59.92
2019-05-23T07:21:48.397Z,60.23
2019-05-23T07:22:48.372Z,60.03
2019-05-23T07:23:48.370Z,60.23
2019-05-23T07:24:58.126Z,60.23
2019-05-23T07:25:49.341Z,60.53
2019-05-23T07:26:48.366Z,60.10
2019-05-23T07:27:48.320Z,59.90
2019-05-23T07:28:48.302Z,57.87
2019-05-23T07:29:48.310Z,57.37
2019-05-23T07:30:48.307Z,57.95
2019-05-23T07:31:48.323Z,57.65
2019-05-23T07:32:48.268Z,57.54
2019-05-23T07:34:01.250Z,57.34
2019-05-23T07:34:49.279Z,56.94
2019-05-23T07:35:48.261Z,56.94
2019-05-23T07:36:48.270Z,56.51
2019-05-23T07:37:48.213Z,56.51
2019-05-23T07:38:48.200Z,57.21
2019-05-23T07:39:48.184Z,56.40
2019-05-23T07:40:48.203Z,55.60
2019-05-23T07:41:48.178Z,55.09
2019-05-23T07:42:48.210Z,54.96
2019-05-23T07:43:48.168Z,55.36
2019-05-23T07:44:48.727Z,55.27
2019-05-23T07:45:48.120Z,55.16
2019-05-23T07:46:48.131Z,55.24
2019-05-23T07:47:48.157Z,54.53
2019-05-23T07:48:48.105Z,54.23
2019-05-23T07:49:48.092Z,54.13
2019-05-23T07:50:48.090Z,54.13
2019-05-23T07:51:48.072Z,54.23
2019-05-23T07:52:48.080Z,54.81
2019-05-23T07:53:48.069Z,54.61
2019-05-23T07:54:48.042Z,55.21
2019-05-23T07:55:48.028Z,54.71
2019-05-23T07:56:48.007Z,53.98
2019-05-23T07:57:48.026Z,53.78
2019-05-23T07:58:48.005Z,53.47
2019-05-23T07:59:48.003Z,53.67
2019-05-23T08:00:48.018Z,53.88
2019-05-23T08:01:47.950Z,53.47
2019-05-23T08:02:47.949Z,53.27
2019-05-23T08:03:47.945Z,53.17
2019-05-23T08:04:47.910Z,53.58
2019-05-23T08:05:47.920Z,53.17
2019-05-23T08:06:48.940Z,53.05
2019-05-23T08:07:48.122Z,52.94
2019-05-23T08:08:47.923Z,52.64
2019-05-23T08:09:47.870Z,52.34
2019-05-23T08:10:47.859Z,52.64
2019-05-23T08:11:47.843Z,52.14
2019-05-23T08:12:47.838Z,52.34
2019-05-23T08:13:47.853Z,52.24
2019-05-23T08:14:47.805Z,53.02
2019-05-23T08:15:47.796Z,52.62
2019-05-23T08:16:47.804Z,53.12
2019-05-23T08:17:47.830Z,52.92
2019-05-23T08:18:47.773Z,52.82
2019-05-23T08:19:50.150Z,52.82
2019-05-23T08:20:47.740Z,52.09
2019-05-23T08:21:47.781Z,51.99
2019-05-23T08:22:47.740Z,52.39
2019-05-23T08:23:47.755Z,52.59
2019-05-23T08:24:51.077Z,52.39
2019-05-23T08:25:47.712Z,52.89
2019-05-23T08:26:47.719Z,52.37
2019-05-23T08:27:47.689Z,52.67
2019-05-23T08:29:21.786Z,51.76
2019-05-23T08:29:48.662Z,51.97
2019-05-23T08:30:47.631Z,51.76
2019-05-23T08:31:47.633Z,51.36
2019-05-23T08:32:47.660Z,51.56
2019-05-23T08:33:47.670Z,51.26
2019-05-23T08:34:47.599Z,51.76
2019-05-23T08:35:47.584Z,51.97
2019-05-23T08:36:47.590Z,51.86
2019-05-23T08:37:47.577Z,51.56
2019-05-23T08:38:47.580Z,50.56
2019-05-23T08:39:47.595Z,51.43
2019-05-23T08:40:47.553Z,50.53
2019-05-23T08:41:47.521Z,50.63
2019-05-23T08:42:47.782Z,50.93
2019-05-23T08:43:47.520Z,49.32
2019-05-23T08:44:47.494Z,49.12
2019-05-23T08:45:47.490Z,50.13
2019-05-23T08:46:47.520Z,50.43
2019-05-23T08:47:47.464Z,50.53
2019-05-23T08:48:47.461Z,49.32
2019-05-23T08:49:47.465Z,50.23
2019-05-23T08:50:51.220Z,50.63
2019-05-23T08:51:47.463Z,50.81
2019-05-23T08:52:47.413Z,50.91
2019-05-23T08:53:47.402Z,50.60
2019-05-23T08:54:47.390Z,50.40
2019-05-23T08:55:47.398Z,49.70
2019-05-23T08:56:47.361Z,50.08
2019-05-23T08:57:47.488Z,49.68
2019-05-23T08:58:47.345Z,50.18
2019-05-23T08:59:47.343Z,49.98
2019-05-23T09:00:47.336Z,48.07
2019-05-23T09:01:47.303Z,48.97
2019-05-23T09:02:47.311Z,48.77
2019-05-23T09:03:47.339Z,48.47
2019-05-23T09:05:03.664Z,48.57
2019-05-23T09:05:48.292Z,48.87
2019-05-23T09:06:47.252Z,48.65
2019-05-23T09:07:47.241Z,48.05
2019-05-23T09:08:47.235Z,48.25
2019-05-23T09:09:47.489Z,47.42
2019-05-23T09:10:47.215Z,46.81
2019-05-23T09:11:47.212Z,47.12
2019-05-23T09:12:47.249Z,46.34
2019-05-23T09:13:47.182Z,46.94
2019-05-23T09:14:47.270Z,46.94
2019-05-23T09:15:47.150Z,47.54
2019-05-23T09:16:47.149Z,47.85
2019-05-23T09:17:53.089Z,47.14
2019-05-23T09:18:48.261Z,46.14
2019-05-23T09:19:47.251Z,46.14
2019-05-23T09:20:47.115Z,46.23
2019-05-23T09:21:47.160Z,45.33
2019-05-23T09:22:47.109Z,43.10
2019-05-23T09:23:47.059Z,43.32
2019-05-23T09:24:47.070Z,43.82
2019-05-23T09:25:47.082Z,43.82
2019-05-23T09:26:47.067Z,44.32
2019-05-23T09:27:47.034Z,44.43
2019-05-23T09:28:47.013Z,44.31
2019-05-23T09:29:47.020Z,45.21
2019-05-23T09:30:47.010Z,44.60
2019-05-23T09:31:46.982Z,44.51
2019-05-23T09:32:46.980Z,44.38
2019-05-23T09:33:46.961Z,44.89
2019-05-23T09:34:46.952Z,44.56
2019-05-23T09:35:46.954Z,44.46
2019-05-23T09:36:46.920Z,43.76
2019-05-23T09:37:46.922Z,43.96
2019-05-23T09:38:46.916Z,43.36
2019-05-23T09:39:46.892Z,43.56
2019-05-23T09:40:46.910Z,43.96
2019-05-23T09:41:46.880Z,42.96
2019-05-23T09:42:46.883Z,42.38
2019-05-23T09:43:46.842Z,42.97
2019-05-23T09:44:46.866Z,43.16
2019-05-23T09:45:46.834Z,43.36
2019-05-23T09:46:46.830Z,43.56
2019-05-23T09:47:51.073Z,42.66
2019-05-23T09:48:46.808Z,41.65
2019-05-23T09:49:53.806Z,41.35
2019-05-23T09:50:47.788Z,41.83
2019-05-23T09:51:47.953Z,41.63
2019-05-23T09:52:46.759Z,41.74
2019-05-23T09:53:47.743Z,41.33
2019-05-23T09:54:46.738Z,42.03
2019-05-23T09:55:46.731Z,40.25
2019-05-23T09:56:46.724Z,41.05
2019-05-23T09:57:46.701Z,41.96
2019-05-23T09:58:46.695Z,42.76
2019-05-23T09:59:46.682Z,42.55
2019-05-23T10:00:46.679Z,42.76
2019-05-23T10:01:46.729Z,42.66
2019-05-23T10:02:46.650Z,43.14
2019-05-23T10:03:46.645Z,41.96
2019-05-23T10:04:46.640Z,41.35
2019-05-23T10:05:46.628Z,42.05
2019-05-23T10:06:46.626Z,42.35
2019-05-23T10:07:46.618Z,42.33
2019-05-23T10:08:46.596Z,42.44
2019-05-23T10:09:46.571Z,42.44
2019-05-23T10:10:46.581Z,42.61
2019-05-23T10:11:46.581Z,41.74
2019-05-23T10:12:46.553Z,41.82
2019-05-23T10:13:46.535Z,42.82
2019-05-23T10:14:46.521Z,42.52
2019-05-23T10:15:46.565Z,42.32
2019-05-23T10:16:46.524Z,42.49
2019-05-23T10:17:46.490Z,43.10
2019-05-23T10:18:46.470Z,42.60
2019-05-23T10:19:46.471Z,42.07
2019-05-23T10:20:46.486Z,41.47
2019-05-23T10:21:46.447Z,41.07
2019-05-23T10:22:46.442Z,41.27
2019-05-23T10:23:46.422Z,40.75
2019-05-23T10:24:46.412Z,41.27
2019-05-23T10:25:46.400Z,41.07
2019-05-23T10:26:46.381Z,41.57
2019-05-23T10:27:46.401Z,41.57
2019-05-23T10:28:46.361Z,41.27
2019-05-23T10:29:46.364Z,41.15
2019-05-23T10:30:46.343Z,41.05
2019-05-23T10:31:46.332Z,41.15
2019-05-23T10:32:46.341Z,41.15
2019-05-23T10:33:46.310Z,41.15
2019-05-23T10:34:46.408Z,40.15
2019-05-23T10:35:59.999Z,40.15
2019-05-23T10:36:47.281Z,38.97
2019-05-23T10:37:46.280Z,39.07
2019-05-23T10:38:46.269Z,39.29
2019-05-23T10:39:46.291Z,38.99
2019-05-23T10:40:46.258Z,39.39
2019-05-23T10:41:46.246Z,39.69
2019-05-23T10:42:46.211Z,39.77
2019-05-23T10:43:46.223Z,39.67
2019-05-23T10:44:46.198Z,38.95
2019-05-23T10:45:46.181Z,38.95
2019-05-23T10:46:46.188Z,39.05
2019-05-23T10:47:46.164Z,39.05
2019-05-23T10:48:46.174Z,39.63
2019-05-23T10:49:46.155Z,39.23
2019-05-23T10:50:46.184Z,39.23
2019-05-23T10:51:46.123Z,39.51
2019-05-23T10:52:46.170Z,39.11
2019-05-23T10:53:46.117Z,38.79
2019-05-23T10:54:46.092Z,38.49
2019-05-23T10:55:46.072Z,37.59
2019-05-23T10:56:46.089Z,37.51
2019-05-23T10:57:46.088Z,38.11
2019-05-23T10:58:46.059Z,38.63
2019-05-23T10:59:46.040Z,38.43
2019-05-23T11:00:46.023Z,38.93
2019-05-23T11:01:46.026Z,38.81
2019-05-23T11:02:46.146Z,38.51
2019-05-23T11:03:46.002Z,37.59
2019-05-23T11:04:45.982Z,37.19
2019-05-23T11:05:45.973Z,36.41
2019-05-23T11:06:45.975Z,37.31
2019-05-23T11:07:45.942Z,37.71
2019-05-23T11:08:45.935Z,38.31
2019-05-23T11:09:45.942Z,38.09
2019-05-23T11:10:45.913Z,37.70
2019-05-23T11:11:45.916Z,37.77
2019-05-23T11:12:45.891Z,37.08
2019-05-23T11:13:45.891Z,36.88
2019-05-23T11:14:45.884Z,37.27
2019-05-23T11:15:45.883Z,37.38
2019-05-23T11:16:45.861Z,37.48
2019-05-23T11:17:45.853Z,37.08
2019-05-23T11:18:45.833Z,37.38
2019-05-23T11:19:45.842Z,37.48
2019-05-23T11:20:45.813Z,37.48
2019-05-23T11:21:45.827Z,37.36
2019-05-23T11:22:45.792Z,36.86
2019-05-23T11:23:45.793Z,36.66
2019-05-23T11:24:45.794Z,37.16
2019-05-23T11:25:45.752Z,36.56
2019-05-23T11:26:45.741Z,36.46
2019-05-23T11:27:45.732Z,36.64
2019-05-23T11:28:45.746Z,35.54
2019-05-23T11:29:45.734Z,36.24
2019-05-23T11:30:45.713Z,35.85
2019-05-23T11:31:45.725Z,35.94
2019-05-23T11:32:45.745Z,36.24
2019-05-23T11:33:45.666Z,35.85
2019-05-23T11:34:45.663Z,35.94
2019-05-23T11:35:45.666Z,36.15
2019-05-23T11:36:45.643Z,36.15
2019-05-23T11:37:45.633Z,36.64
2019-05-23T11:38:45.614Z,36.15
2019-05-23T11:39:49.489Z,36.04
2019-05-23T11:40:46.616Z,35.93
2019-05-23T11:41:45.603Z,35.93
2019-05-23T11:42:45.572Z,35.13
2019-05-23T11:43:45.564Z,35.23
2019-05-23T11:44:45.566Z,35.83
2019-05-23T11:45:46.431Z,35.23
2019-05-23T11:46:45.533Z,35.05
2019-05-23T11:47:45.537Z,35.85
2019-05-23T11:48:45.513Z,35.85
2019-05-23T11:49:45.890Z,35.94
2019-05-23T11:50:45.493Z,35.85
2019-05-23T11:51:45.483Z,35.54
2019-05-23T11:52:45.469Z,35.42
2019-05-23T11:53:50.351Z,35.64
2019-05-23T11:54:46.455Z,36.36
2019-05-23T11:55:45.457Z,36.26
2019-05-23T11:56:45.446Z,36.76
2019-05-23T11:57:45.417Z,36.47
2019-05-23T11:58:45.434Z,36.47
2019-05-23T11:59:45.434Z,36.18
2019-05-23T12:00:45.401Z,36.47
2019-05-23T12:01:45.385Z,35.96
2019-05-23T12:02:45.374Z,35.54
2019-05-23T12:03:45.368Z,36.15
2019-05-23T12:04:45.348Z,36.15
2019-05-23T12:05:45.324Z,36.44
2019-05-23T12:06:55.469Z,36.74
2019-05-23T12:07:46.304Z,35.85
2019-05-23T12:08:45.307Z,35.05
2019-05-23T12:09:45.306Z,34.94
2019-05-23T12:10:45.283Z,34.55
2019-05-23T12:11:45.269Z,35.16
2019-05-23T12:12:45.294Z,35.16
2019-05-23T12:13:45.284Z,34.96
2019-05-23T12:14:45.224Z,35.46
2019-05-23T12:15:45.224Z,34.76
2019-05-23T12:16:45.223Z,35.46
2019-05-23T12:17:45.225Z,36.15
2019-05-23T12:18:45.184Z,35.83
2019-05-23T12:19:45.209Z,35.61
2019-05-23T12:20:45.171Z,35.99
2019-05-23T12:21:45.183Z,34.99
2019-05-23T12:22:45.247Z,34.89
2019-05-23T12:23:45.202Z,34.68
2019-05-23T12:24:45.139Z,33.78
2019-05-23T12:25:45.105Z,34.58
2019-05-23T12:26:45.125Z,34.38
2019-05-23T12:27:45.123Z,33.76
2019-05-23T12:28:45.095Z,34.56
2019-05-23T12:29:45.103Z,33.97
2019-05-23T12:30:45.064Z,33.97
2019-05-23T12:31:49.098Z,33.95
2019-05-23T12:32:45.523Z,34.15
2019-05-23T12:33:45.043Z,34.94
2019-05-23T12:35:07.963Z,34.75
2019-05-23T12:35:46.006Z,34.23
2019-05-23T12:36:45.036Z,33.63
2019-05-23T12:37:44.998Z,34.03
2019-05-23T12:38:45.007Z,33.04
2019-05-23T12:39:44.974Z,33.44
2019-05-23T12:40:44.955Z,33.34
2019-05-23T12:41:44.962Z,33.62
2019-05-23T12:42:44.953Z,33.62
2019-05-23T12:43:44.938Z,33.62
2019-05-23T12:44:44.905Z,32.82
2019-05-23T12:45:44.905Z,33.22
2019-05-23T12:46:44.901Z,33.42
2019-05-23T12:47:44.932Z,33.12
2019-05-23T12:48:44.892Z,33.92
2019-05-23T12:49:44.895Z,32.72
2019-05-23T12:50:44.855Z,32.82
2019-05-23T12:51:44.875Z,32.92
2019-05-23T12:52:44.877Z,33.34